sensor_id;sensor_type;location;lat;lon;timestamp;pressure;altitude;pressure_sealevel;temperature;humidity
9474;BME280;8865;47.636;7.692;2022-10-16T00:01:30;98240.16;;;14.58;100.00
9474;BME280;8865;47.636;7.692;2022-10-16T00:03:58;98246.41;;;14.57;100.00
9474;BME280;8865;47.636;7.692;2022-10-16T00:06:25;98256.66;;;14.60;100.00
9474;BME280;8865;47.636;7.692;2022-10-16T00:08:52;98258.13;;;14.55;100.00
9474;BME280;8865;47.636;7.692;2022-10-16T00:11:24;98268.19;;;14.59;100.00
9474;BME280;8865;47.636;7.692;2022-10-16T00:13:52;98275.97;;;14.61;100.00
9474;BME280;8865;47.636;7.692;2022-10-16T00:16:20;98268.56;;;14.64;100.00
9474;BME280;8865;47.636;7.692;2022-10-16T00:18:46;98259.84;;;14.64;100.00
9474;BME280;8865;47.636;7.692;2022-10-16T00:21:15;98260.66;;;14.64;100.00
9474;BME280;8865;47.636;7.692;2022-10-16T00:23:41;98264.09;;;14.65;100.00
9474;BME280;8865;47.636;7.692;2022-10-16T00:26:09;98266.25;;;14.61;100.00
9474;BME280;8865;47.636;7.692;2022-10-16T00:28:36;98273.34;;;14.61;100.00
9474;BME280;8865;47.636;7.692;2022-10-16T00:31:04;98284.53;;;14.63;100.00
9474;BME280;8865;47.636;7.692;2022-10-16T00:33:30;98280.22;;;14.62;100.00
9474;BME280;8865;47.636;7.692;2022-10-16T00:36:01;98293.09;;;14.65;100.00
9474;BME280;8865;47.636;7.692;2022-10-16T00:38:28;98288.00;;;14.63;100.00
9474;BME280;8865;47.636;7.692;2022-10-16T00:40:54;98291.63;;;14.62;100.00
9474;BME280;8865;47.636;7.692;2022-10-16T00:46:19;98296.50;;;14.57;100.00
9474;BME280;8865;47.636;7.692;2022-10-16T00:48:53;98292.88;;;14.58;100.00
9474;BME280;8865;47.636;7.692;2022-10-16T00:51:24;98294.88;;;14.56;100.00
9474;BME280;8865;47.636;7.692;2022-10-16T00:53:51;98289.59;;;14.56;100.00
9474;BME280;8865;47.636;7.692;2022-10-16T00:56:18;98291.69;;;14.53;100.00
9474;BME280;8865;47.636;7.692;2022-10-16T00:58:44;98289.38;;;14.50;100.00
9474;BME280;8865;47.636;7.692;2022-10-16T01:01:10;98287.59;;;14.50;100.00
9474;BME280;8865;47.636;7.692;2022-10-16T01:03:36;98282.63;;;14.47;100.00
9474;BME280;8865;47.636;7.692;2022-10-16T01:06:15;98285.03;;;14.40;100.00
9474;BME280;8865;47.636;7.692;2022-10-16T01:08:55;98291.31;;;14.39;100.00
9474;BME280;8865;47.636;7.692;2022-10-16T01:14:00;98302.97;;;14.37;100.00
9474;BME280;8865;47.636;7.692;2022-10-16T01:17:00;98293.72;;;14.33;100.00
9474;BME280;8865;47.636;7.692;2022-10-16T01:22:08;98300.97;;;14.31;100.00
9474;BME280;8865;47.636;7.692;2022-10-16T01:24:45;98309.69;;;14.31;100.00
9474;BME280;8865;47.636;7.692;2022-10-16T01:27:36;98307.03;;;14.31;100.00
9474;BME280;8865;47.636;7.692;2022-10-16T01:30:23;98304.41;;;14.31;100.00
9474;BME280;8865;47.636;7.692;2022-10-16T01:32:57;98303.59;;;14.31;100.00
9474;BME280;8865;47.636;7.692;2022-10-16T01:35:28;98295.03;;;14.28;100.00
9474;BME280;8865;47.636;7.692;2022-10-16T01:38:09;98290.06;;;14.25;100.00
9474;BME280;8865;47.636;7.692;2022-10-16T01:40:39;98294.00;;;14.21;100.00
9474;BME280;8865;47.636;7.692;2022-10-16T01:43:12;98307.97;;;14.22;100.00
9474;BME280;8865;47.636;7.692;2022-10-16T01:45:42;98295.66;;;14.22;100.00
9474;BME280;8865;47.636;7.692;2022-10-16T01:48:12;98292.47;;;14.19;100.00
9474;BME280;8865;47.636;7.692;2022-10-16T01:50:41;98290.00;;;14.17;100.00
9474;BME280;8865;47.636;7.692;2022-10-16T01:53:12;98290.16;;;14.16;100.00
9474;BME280;8865;47.636;7.692;2022-10-16T01:55:42;98277.28;;;14.13;100.00
9474;BME280;8865;47.636;7.692;2022-10-16T01:58:12;98278.44;;;14.10;100.00
9474;BME280;8865;47.636;7.692;2022-10-16T02:00:42;98280.38;;;14.08;100.00
9474;BME280;8865;47.636;7.692;2022-10-16T02:03:11;98287.63;;;14.06;100.00
9474;BME280;8865;47.636;7.692;2022-10-16T02:05:46;98295.53;;;14.06;100.00
9474;BME280;8865;47.636;7.692;2022-10-16T02:08:12;98295.84;;;14.03;100.00
9474;BME280;8865;47.636;7.692;2022-10-16T02:10:39;98301.41;;;14.00;100.00
9474;BME280;8865;47.636;7.692;2022-10-16T02:13:26;98314.28;;;14.03;100.00
9474;BME280;8865;47.636;7.692;2022-10-16T02:15:54;98316.91;;;14.03;100.00
9474;BME280;8865;47.636;7.692;2022-10-16T02:18:21;98315.94;;;14.04;100.00
9474;BME280;8865;47.636;7.692;2022-10-16T02:21:15;98316.59;;;14.06;100.00
9474;BME280;8865;47.636;7.692;2022-10-16T02:23:45;98309.16;;;14.01;100.00
9474;BME280;8865;47.636;7.692;2022-10-16T02:26:17;98304.56;;;14.03;100.00
9474;BME280;8865;47.636;7.692;2022-10-16T02:28:48;98307.19;;;14.03;100.00
9474;BME280;8865;47.636;7.692;2022-10-16T02:31:23;98314.94;;;14.05;100.00
9474;BME280;8865;47.636;7.692;2022-10-16T02:33:52;98312.44;;;14.03;100.00
9474;BME280;8865;47.636;7.692;2022-10-16T02:36:20;98306.38;;;14.03;100.00
9474;BME280;8865;47.636;7.692;2022-10-16T02:38:47;98310.97;;;14.01;100.00
9474;BME280;8865;47.636;7.692;2022-10-16T02:41:14;98320.66;;;14.00;100.00
9474;BME280;8865;47.636;7.692;2022-10-16T02:43:40;98304.19;;;13.98;100.00
9474;BME280;8865;47.636;7.692;2022-10-16T02:46:06;98319.19;;;13.98;100.00
9474;BME280;8865;47.636;7.692;2022-10-16T02:48:32;98312.91;;;13.99;100.00
9474;BME280;8865;47.636;7.692;2022-10-16T02:50:57;98311.59;;;13.95;100.00
9474;BME280;8865;47.636;7.692;2022-10-16T02:53:23;98319.47;;;13.95;100.00
9474;BME280;8865;47.636;7.692;2022-10-16T02:55:49;98314.06;;;13.96;100.00
9474;BME280;8865;47.636;7.692;2022-10-16T02:58:15;98320.16;;;13.97;100.00
9474;BME280;8865;47.636;7.692;2022-10-16T03:00:41;98325.25;;;13.98;100.00
9474;BME280;8865;47.636;7.692;2022-10-16T03:03:08;98326.78;;;14.01;100.00
9474;BME280;8865;47.636;7.692;2022-10-16T03:05:34;98323.59;;;13.97;100.00
9474;BME280;8865;47.636;7.692;2022-10-16T03:07:59;98325.56;;;13.95;100.00
9474;BME280;8865;47.636;7.692;2022-10-16T03:10:27;98326.06;;;13.99;100.00
9474;BME280;8865;47.636;7.692;2022-10-16T03:12:53;98320.50;;;14.02;100.00
9474;BME280;8865;47.636;7.692;2022-10-16T03:15:19;98322.47;;;14.00;100.00
9474;BME280;8865;47.636;7.692;2022-10-16T03:17:45;98326.94;;;13.99;100.00
9474;BME280;8865;47.636;7.692;2022-10-16T03:20:11;98319.03;;;13.99;100.00
9474;BME280;8865;47.636;7.692;2022-10-16T03:22:36;98317.22;;;14.00;100.00
9474;BME280;8865;47.636;7.692;2022-10-16T03:25:03;98309.63;;;13.97;100.00
9474;BME280;8865;47.636;7.692;2022-10-16T03:27:29;98314.22;;;13.95;100.00
9474;BME280;8865;47.636;7.692;2022-10-16T03:29:55;98303.28;;;13.89;100.00
9474;BME280;8865;47.636;7.692;2022-10-16T03:32:21;98302.16;;;13.92;100.00
9474;BME280;8865;47.636;7.692;2022-10-16T03:34:47;98309.91;;;13.93;100.00
9474;BME280;8865;47.636;7.692;2022-10-16T03:37:13;98308.94;;;13.95;100.00
9474;BME280;8865;47.636;7.692;2022-10-16T03:39:39;98317.66;;;13.95;100.00
9474;BME280;8865;47.636;7.692;2022-10-16T03:42:05;98317.66;;;13.95;100.00
9474;BME280;8865;47.636;7.692;2022-10-16T03:44:31;98325.56;;;13.95;100.00
9474;BME280;8865;47.636;7.692;2022-10-16T03:46:57;98325.56;;;13.95;100.00
9474;BME280;8865;47.636;7.692;2022-10-16T03:49:23;98319.09;;;13.89;100.00
9474;BME280;8865;47.636;7.692;2022-10-16T03:51:49;98324.19;;;13.91;100.00
9474;BME280;8865;47.636;7.692;2022-10-16T03:54:14;98324.91;;;13.93;100.00
9474;BME280;8865;47.636;7.692;2022-10-16T03:56:40;98325.25;;;13.98;100.00
9474;BME280;8865;47.636;7.692;2022-10-16T03:59:06;98320.59;;;13.92;100.00
9474;BME280;8865;47.636;7.692;2022-10-16T04:01:32;98320.75;;;13.90;100.00
9474;BME280;8865;47.636;7.692;2022-10-16T04:03:58;98323.38;;;13.90;100.00
9474;BME280;8865;47.636;7.692;2022-10-16T04:06:24;98323.38;;;13.90;100.00
9474;BME280;8865;47.636;7.692;2022-10-16T04:08:50;98331.94;;;13.92;100.00
9474;BME280;8865;47.636;7.692;2022-10-16T04:11:16;98330.97;;;13.93;100.00
9474;BME280;8865;47.636;7.692;2022-10-16T04:13:42;98325.72;;;13.93;100.00
9474;BME280;8865;47.636;7.692;2022-10-16T04:16:09;98322.13;;;13.95;100.00
9474;BME280;8865;47.636;7.692;2022-10-16T04:18:35;98321.97;;;13.96;100.00
9474;BME280;8865;47.636;7.692;2022-10-16T04:21:03;98320.44;;;13.93;100.00
9474;BME280;8865;47.636;7.692;2022-10-16T04:23:30;98330.00;;;13.95;100.00
9474;BME280;8865;47.636;7.692;2022-10-16T04:25:56;98323.59;;;13.97;100.00
9474;BME280;8865;47.636;7.692;2022-10-16T04:28:22;98329.31;;;13.92;100.00
9474;BME280;8865;47.636;7.692;2022-10-16T04:30:48;98326.84;;;13.91;100.00
9474;BME280;8865;47.636;7.692;2022-10-16T04:33:14;98335.44;;;13.93;100.00
9474;BME280;8865;47.636;7.692;2022-10-16T04:35:40;98322.13;;;13.95;100.00
9474;BME280;8865;47.636;7.692;2022-10-16T04:38:06;98325.88;;;13.92;100.00
9474;BME280;8865;47.636;7.692;2022-10-16T04:40:32;98325.19;;;13.90;100.00
9474;BME280;8865;47.636;7.692;2022-10-16T04:42:59;98320.59;;;13.92;100.00
9474;BME280;8865;47.636;7.692;2022-10-16T04:45:25;98331.28;;;13.90;100.00
9474;BME280;8865;47.636;7.692;2022-10-16T04:47:51;98326.47;;;13.86;100.00
9474;BME280;8865;47.636;7.692;2022-10-16T04:50:17;98326.63;;;13.84;100.00
9474;BME280;8865;47.636;7.692;2022-10-16T04:52:43;98327.59;;;13.83;100.00
9474;BME280;8865;47.636;7.692;2022-10-16T04:55:09;98329.09;;;13.86;100.00
9474;BME280;8865;47.636;7.692;2022-10-16T04:57:34;98325.66;;;13.85;100.00
9474;BME280;8865;47.636;7.692;2022-10-16T05:00:00;98324.81;;;13.85;100.00
9474;BME280;8865;47.636;7.692;2022-10-16T05:02:27;98328.28;;;13.85;100.00
9474;BME280;8865;47.636;7.692;2022-10-16T05:04:52;98327.44;;;13.85;100.00
9474;BME280;8865;47.636;7.692;2022-10-16T05:07:18;98336.34;;;13.84;100.00
9474;BME280;8865;47.636;7.692;2022-10-16T05:09:44;98330.22;;;13.83;100.00
9474;BME280;8865;47.636;7.692;2022-10-16T05:12:10;98329.56;;;13.81;100.00
9474;BME280;8865;47.636;7.692;2022-10-16T05:14:36;98327.91;;;13.80;100.00
9474;BME280;8865;47.636;7.692;2022-10-16T05:17:02;98323.31;;;13.82;100.00
9474;BME280;8865;47.636;7.692;2022-10-16T05:19:28;98327.59;;;13.83;100.00
9474;BME280;8865;47.636;7.692;2022-10-16T05:21:55;98335.34;;;13.85;100.00
9474;BME280;8865;47.636;7.692;2022-10-16T05:24:21;98335.19;;;13.86;100.00
9474;BME280;8865;47.636;7.692;2022-10-16T05:26:47;98333.25;;;13.88;100.00
9474;BME280;8865;47.636;7.692;2022-10-16T05:29:14;98334.22;;;13.87;100.00
9474;BME280;8865;47.636;7.692;2022-10-16T05:31:40;98334.88;;;13.89;100.00
9474;BME280;8865;47.636;7.692;2022-10-16T05:34:05;98347.09;;;13.90;100.00
9474;BME280;8865;47.636;7.692;2022-10-16T05:36:31;98356.66;;;13.91;100.00
9474;BME280;8865;47.636;7.692;2022-10-16T05:38:57;98352.34;;;13.90;100.00
9474;BME280;8865;47.636;7.692;2022-10-16T05:41:23;98355.13;;;13.89;100.00
9474;BME280;8865;47.636;7.692;2022-10-16T05:43:52;98360.25;;;13.90;100.00
9474;BME280;8865;47.636;7.692;2022-10-16T05:46:19;98360.25;;;13.90;100.00
9474;BME280;8865;47.636;7.692;2022-10-16T05:48:45;98360.09;;;13.92;100.00
9474;BME280;8865;47.636;7.692;2022-10-16T05:51:13;98370.63;;;13.92;100.00
9474;BME280;8865;47.636;7.692;2022-10-16T05:53:40;98363.56;;;13.92;100.00
9474;BME280;8865;47.636;7.692;2022-10-16T05:56:09;98365.50;;;13.90;100.00
9474;BME280;8865;47.636;7.692;2022-10-16T05:58:37;98364.69;;;13.90;100.00
9474;BME280;8865;47.636;7.692;2022-10-16T06:01:12;98368.31;;;13.89;100.00
9474;BME280;8865;47.636;7.692;2022-10-16T06:03:39;98363.03;;;13.89;100.00
9474;BME280;8865;47.636;7.692;2022-10-16T06:06:19;98374.97;;;13.83;100.00
9474;BME280;8865;47.636;7.692;2022-10-16T06:08:47;98380.09;;;13.85;100.00
9474;BME280;8865;47.636;7.692;2022-10-16T06:11:16;98378.00;;;13.88;100.00
9474;BME280;8865;47.636;7.692;2022-10-16T06:13:42;98394.31;;;13.92;100.00
9474;BME280;8865;47.636;7.692;2022-10-16T06:16:09;98387.25;;;13.92;100.00
9474;BME280;8865;47.636;7.692;2022-10-16T06:18:36;98389.28;;;13.99;100.00
9474;BME280;8865;47.636;7.692;2022-10-16T06:21:10;98389.97;;;14.01;100.00
9474;BME280;8865;47.636;7.692;2022-10-16T06:23:37;98389.81;;;14.02;100.00
9474;BME280;8865;47.636;7.692;2022-10-16T06:26:11;98396.28;;;14.08;100.00
9474;BME280;8865;47.636;7.692;2022-10-16T06:28:38;98384.09;;;14.07;100.00
9474;BME280;8865;47.636;7.692;2022-10-16T06:31:05;98397.63;;;14.12;100.00
9474;BME280;8865;47.636;7.692;2022-10-16T06:33:32;98413.81;;;14.17;100.00
9474;BME280;8865;47.636;7.692;2022-10-16T06:38:31;98394.16;;;14.29;100.00
9474;BME280;8865;47.636;7.692;2022-10-16T06:40:58;98405.06;;;14.35;100.00
9474;BME280;8865;47.636;7.692;2022-10-16T06:43:24;98414.38;;;14.47;100.00
9474;BME280;8865;47.636;7.692;2022-10-16T06:45:52;98408.19;;;14.56;100.00
9474;BME280;8865;47.636;7.692;2022-10-16T06:48:18;98408.28;;;14.64;100.00
9474;BME280;8865;47.636;7.692;2022-10-16T06:50:44;98413.75;;;14.71;100.00
9474;BME280;8865;47.636;7.692;2022-10-16T06:53:10;98412.00;;;14.80;100.00
9474;BME280;8865;47.636;7.692;2022-10-16T06:55:36;98415.38;;;14.90;100.00
9474;BME280;8865;47.636;7.692;2022-10-16T06:58:02;98417.06;;;14.99;100.00
9474;BME280;8865;47.636;7.692;2022-10-16T07:00:28;98420.75;;;15.07;100.00
9474;BME280;8865;47.636;7.692;2022-10-16T07:02:54;98414.22;;;15.19;100.00
9474;BME280;8865;47.636;7.692;2022-10-16T07:05:20;98415.56;;;15.31;100.00
9474;BME280;8865;47.636;7.692;2022-10-16T07:07:46;98418.91;;;15.42;100.00
9474;BME280;8865;47.636;7.692;2022-10-16T07:10:11;98414.66;;;15.57;100.00
9474;BME280;8865;47.636;7.692;2022-10-16T07:12:37;98424.28;;;15.75;100.00
9474;BME280;8865;47.636;7.692;2022-10-16T07:15:04;98414.94;;;15.88;100.00
9474;BME280;8865;47.636;7.692;2022-10-16T07:17:30;98420.91;;;16.07;100.00
9474;BME280;8865;47.636;7.692;2022-10-16T07:19:56;98416.66;;;16.14;100.00
9474;BME280;8865;47.636;7.692;2022-10-16T07:22:21;98424.56;;;16.31;100.00
9474;BME280;8865;47.636;7.692;2022-10-16T07:24:47;98417.13;;;16.42;100.00
9474;BME280;8865;47.636;7.692;2022-10-16T07:27:13;98417.28;;;16.49;100.00
9474;BME280;8865;47.636;7.692;2022-10-16T07:29:41;98419.09;;;16.57;100.00
9474;BME280;8865;47.636;7.692;2022-10-16T07:32:07;98423.72;;;16.63;100.00
9474;BME280;8865;47.636;7.692;2022-10-16T07:34:33;98421.75;;;16.65;100.00
9474;BME280;8865;47.636;7.692;2022-10-16T07:36:59;98427.03;;;16.65;100.00
9474;BME280;8865;47.636;7.692;2022-10-16T07:39:25;98436.28;;;16.61;100.00
9474;BME280;8865;47.636;7.692;2022-10-16T07:41:51;98434.63;;;16.60;100.00
9474;BME280;8865;47.636;7.692;2022-10-16T07:44:17;98442.91;;;16.57;100.00
9474;BME280;8865;47.636;7.692;2022-10-16T07:46:43;98453.47;;;16.57;100.00
9474;BME280;8865;47.636;7.692;2022-10-16T07:49:08;98456.13;;;16.57;100.00
9474;BME280;8865;47.636;7.692;2022-10-16T07:51:34;98452.47;;;16.66;100.00
9474;BME280;8865;47.636;7.692;2022-10-16T07:54:00;98457.28;;;16.79;100.00
9474;BME280;8865;47.636;7.692;2022-10-16T07:56:27;98458.59;;;17.08;100.00
9474;BME280;8865;47.636;7.692;2022-10-16T07:58:53;98448.38;;;17.44;100.00
9474;BME280;8865;47.636;7.692;2022-10-16T08:01:19;98432.44;;;17.84;100.00
9474;BME280;8865;47.636;7.692;2022-10-16T08:03:50;98424.03;;;18.12;100.00
9474;BME280;8865;47.636;7.692;2022-10-16T08:06:18;98421.25;;;18.28;100.00
9474;BME280;8865;47.636;7.692;2022-10-16T08:08:44;98431.09;;;18.43;100.00
9474;BME280;8865;47.636;7.692;2022-10-16T08:11:10;98430.22;;;18.65;100.00
9474;BME280;8865;47.636;7.692;2022-10-16T08:13:36;98428.13;;;18.99;100.00
9474;BME280;8865;47.636;7.692;2022-10-16T08:16:03;98428.03;;;19.37;100.00
9474;BME280;8865;47.636;7.692;2022-10-16T08:18:40;98413.38;;;19.92;100.00
9474;BME280;8865;47.636;7.692;2022-10-16T08:21:08;98394.78;;;20.42;100.00
9474;BME280;8865;47.636;7.692;2022-10-16T08:23:37;98391.22;;;21.55;100.00
9474;BME280;8865;47.636;7.692;2022-10-16T08:26:06;98380.28;;;23.50;100.00
9474;BME280;8865;47.636;7.692;2022-10-16T08:28:32;98364.63;;;26.10;100.00
9474;BME280;8865;47.636;7.692;2022-10-16T08:31:13;98364.91;;;28.86;86.24
9474;BME280;8865;47.636;7.692;2022-10-16T08:33:41;98375.44;;;30.03;69.64
9474;BME280;8865;47.636;7.692;2022-10-16T08:36:10;98371.34;;;29.46;70.58
9474;BME280;8865;47.636;7.692;2022-10-16T08:38:36;98382.50;;;28.21;79.39
9474;BME280;8865;47.636;7.692;2022-10-16T08:49:17;98367.53;;;30.56;65.73
9474;BME280;8865;47.636;7.692;2022-10-16T08:51:43;98370.44;;;29.63;67.20
9474;BME280;8865;47.636;7.692;2022-10-16T08:54:15;98372.50;;;31.28;57.88
9474;BME280;8865;47.636;7.692;2022-10-16T08:56:45;98376.38;;;34.51;45.68
9474;BME280;8865;47.636;7.692;2022-10-16T08:59:11;98366.09;;;36.82;38.79
9474;BME280;8865;47.636;7.692;2022-10-16T09:01:38;98361.91;;;39.07;34.08
9474;BME280;8865;47.636;7.692;2022-10-16T09:06:40;98347.25;;;40.91;28.60
9474;BME280;8865;47.636;7.692;2022-10-16T09:16:57;98360.56;;;38.25;31.91
9474;BME280;8865;47.636;7.692;2022-10-16T09:19:33;98362.25;;;35.46;36.33
9474;BME280;8865;47.636;7.692;2022-10-16T09:22:04;98354.66;;;34.12;38.80
9474;BME280;8865;47.636;7.692;2022-10-16T09:24:35;98355.88;;;32.85;41.12
9474;BME280;8865;47.636;7.692;2022-10-16T09:27:01;98361.28;;;31.72;47.01
9474;BME280;8865;47.636;7.692;2022-10-16T09:29:27;98367.41;;;31.47;50.23
9474;BME280;8865;47.636;7.692;2022-10-16T09:31:53;98365.41;;;32.11;48.95
9474;BME280;8865;47.636;7.692;2022-10-16T09:34:42;98355.34;;;32.68;49.68
9474;BME280;8865;47.636;7.692;2022-10-16T09:37:10;98354.13;;;33.65;46.43
9474;BME280;8865;47.636;7.692;2022-10-16T09:39:50;98362.78;;;34.51;43.17
9474;BME280;8865;47.636;7.692;2022-10-16T09:42:20;98360.69;;;33.64;43.57
9474;BME280;8865;47.636;7.692;2022-10-16T09:44:47;98353.00;;;33.32;42.45
9474;BME280;8865;47.636;7.692;2022-10-16T09:47:15;98359.34;;;36.14;40.00
9474;BME280;8865;47.636;7.692;2022-10-16T09:52:23;98359.72;;;39.44;32.87
9474;BME280;8865;47.636;7.692;2022-10-16T09:54:54;98362.53;;;42.73;28.54
9474;BME280;8865;47.636;7.692;2022-10-16T09:57:21;98361.09;;;44.22;25.26
9474;BME280;8865;47.636;7.692;2022-10-16T09:59:57;98359.72;;;45.27;23.45
9474;BME280;8865;47.636;7.692;2022-10-16T10:02:34;98357.91;;;46.33;22.55
9474;BME280;8865;47.636;7.692;2022-10-16T10:05:02;98362.69;;;44.23;23.27
9474;BME280;8865;47.636;7.692;2022-10-16T10:07:37;98362.47;;;40.32;26.61
9474;BME280;8865;47.636;7.692;2022-10-16T10:10:06;98364.56;;;37.31;32.79
9474;BME280;8865;47.636;7.692;2022-10-16T10:12:45;98368.97;;;35.92;35.51
9474;BME280;8865;47.636;7.692;2022-10-16T10:15:12;98369.69;;;38.20;32.45
9474;BME280;8865;47.636;7.692;2022-10-16T10:20:30;98358.47;;;45.05;23.61
9474;BME280;8865;47.636;7.692;2022-10-16T10:23:01;98360.59;;;46.99;20.42
9474;BME280;8865;47.636;7.692;2022-10-16T10:33:45;98355.97;;;47.37;20.40
9474;BME280;8865;47.636;7.692;2022-10-16T10:46:51;98335.41;;;49.87;16.77
9474;BME280;8865;47.636;7.692;2022-10-16T10:57:33;98336.28;;;50.27;16.86
9474;BME280;8865;47.636;7.692;2022-10-16T11:00:24;98331.13;;;50.29;16.12
9474;BME280;8865;47.636;7.692;2022-10-16T11:05:50;98319.56;;;49.14;16.40
9474;BME280;8865;47.636;7.692;2022-10-16T11:09:07;98321.09;;;48.45;18.46
9474;BME280;8865;47.636;7.692;2022-10-16T11:14:52;98312.13;;;44.67;21.21
9474;BME280;8865;47.636;7.692;2022-10-16T11:17:41;98306.22;;;42.12;23.68
9474;BME280;8865;47.636;7.692;2022-10-16T11:20:19;98302.91;;;42.19;24.05
9474;BME280;8865;47.636;7.692;2022-10-16T11:23:11;98296.06;;;42.99;22.59
9474;BME280;8865;47.636;7.692;2022-10-16T11:25:40;98292.63;;;42.90;21.64
9474;BME280;8865;47.636;7.692;2022-10-16T11:28:16;98290.44;;;42.83;21.73
9474;BME280;8865;47.636;7.692;2022-10-16T11:33:34;98280.84;;;40.88;25.21
9474;BME280;8865;47.636;7.692;2022-10-16T11:36:16;98286.03;;;40.51;25.12
9474;BME280;8865;47.636;7.692;2022-10-16T11:38:59;98275.81;;;40.61;26.68
9474;BME280;8865;47.636;7.692;2022-10-16T11:41:44;98277.13;;;41.56;23.25
9474;BME280;8865;47.636;7.692;2022-10-16T11:47:08;98280.84;;;43.42;21.80
9474;BME280;8865;47.636;7.692;2022-10-16T11:49:37;98271.97;;;43.37;22.82
9474;BME280;8865;47.636;7.692;2022-10-16T11:52:18;98275.97;;;44.24;20.94
9474;BME280;8865;47.636;7.692;2022-10-16T11:54:54;98279.69;;;44.48;21.82
9474;BME280;8865;47.636;7.692;2022-10-16T11:57:32;98286.50;;;43.21;22.45
9474;BME280;8865;47.636;7.692;2022-10-16T12:00:05;98288.16;;;42.02;25.02
9474;BME280;8865;47.636;7.692;2022-10-16T12:03:27;98283.34;;;42.57;24.33
9474;BME280;8865;47.636;7.692;2022-10-16T12:08:49;98282.63;;;42.48;23.84
9474;BME280;8865;47.636;7.692;2022-10-16T12:13:50;98275.84;;;41.54;25.30
9474;BME280;8865;47.636;7.692;2022-10-16T12:16:20;98277.84;;;41.66;25.12
9474;BME280;8865;47.636;7.692;2022-10-16T12:18:47;98269.53;;;42.20;24.88
9474;BME280;8865;47.636;7.692;2022-10-16T12:21:15;98274.75;;;42.01;25.01
9474;BME280;8865;47.636;7.692;2022-10-16T12:23:49;98261.34;;;41.66;25.73
9474;BME280;8865;47.636;7.692;2022-10-16T12:26:33;98265.09;;;42.40;24.58
9474;BME280;8865;47.636;7.692;2022-10-16T12:29:19;98270.06;;;43.65;23.08
9474;BME280;8865;47.636;7.692;2022-10-16T12:31:48;98266.50;;;44.73;21.06
9474;BME280;8865;47.636;7.692;2022-10-16T12:34:27;98265.78;;;43.96;21.83
9474;BME280;8865;47.636;7.692;2022-10-16T12:36:54;98260.69;;;43.98;21.94
9474;BME280;8865;47.636;7.692;2022-10-16T12:39:22;98252.84;;;45.00;20.17
9474;BME280;8865;47.636;7.692;2022-10-16T12:41:53;98249.19;;;46.16;20.02
9474;BME280;8865;47.636;7.692;2022-10-16T12:44:25;98252.94;;;46.51;18.91
9474;BME280;8865;47.636;7.692;2022-10-16T12:46:54;98244.63;;;46.78;19.94
9474;BME280;8865;47.636;7.692;2022-10-16T12:49:30;98245.94;;;45.88;20.50
9474;BME280;8865;47.636;7.692;2022-10-16T12:51:56;98235.44;;;44.80;20.42
9474;BME280;8865;47.636;7.692;2022-10-16T12:54:27;98237.00;;;43.97;21.15
9474;BME280;8865;47.636;7.692;2022-10-16T13:07:34;98234.22;;;43.81;21.36
9474;BME280;8865;47.636;7.692;2022-10-16T13:10:06;98237.97;;;43.32;21.60
9474;BME280;8865;47.636;7.692;2022-10-16T13:18:06;98240.88;;;42.71;22.54
9474;BME280;8865;47.636;7.692;2022-10-16T13:28:19;98232.91;;;44.07;20.22
9474;BME280;8865;47.636;7.692;2022-10-16T13:30:53;98231.38;;;43.78;20.04
9474;BME280;8865;47.636;7.692;2022-10-16T13:35:58;98224.94;;;44.69;20.20
9474;BME280;8865;47.636;7.692;2022-10-16T13:38:27;98226.91;;;45.04;19.70
9474;BME280;8865;47.636;7.692;2022-10-16T13:40:57;98222.06;;;44.82;20.20
9474;BME280;8865;47.636;7.692;2022-10-16T13:43:41;98220.53;;;44.84;19.78
9474;BME280;8865;47.636;7.692;2022-10-16T13:46:12;98223.66;;;44.47;21.52
9474;BME280;8865;47.636;7.692;2022-10-16T13:48:38;98218.19;;;44.19;20.88
9474;BME280;8865;47.636;7.692;2022-10-16T13:53:30;98223.47;;;43.48;20.24
9474;BME280;8865;47.636;7.692;2022-10-16T13:55:56;98224.25;;;43.20;20.50
9474;BME280;8865;47.636;7.692;2022-10-16T13:58:22;98223.78;;;43.75;20.32
9474;BME280;8865;47.636;7.692;2022-10-16T14:01:04;98227.41;;;43.63;20.28
9474;BME280;8865;47.636;7.692;2022-10-16T14:03:31;98226.66;;;42.56;22.32
9474;BME280;8865;47.636;7.692;2022-10-16T14:05:59;98234.22;;;42.84;21.08
9474;BME280;8865;47.636;7.692;2022-10-16T14:08:27;98227.06;;;43.36;21.70
9474;BME280;8865;47.636;7.692;2022-10-16T14:10:57;98233.00;;;43.22;20.84
9474;BME280;8865;47.636;7.692;2022-10-16T14:13:37;98231.06;;;42.11;21.96
9474;BME280;8865;47.636;7.692;2022-10-16T14:16:08;98226.41;;;40.91;23.22
9474;BME280;8865;47.636;7.692;2022-10-16T14:18:37;98231.56;;;39.59;24.85
9474;BME280;8865;47.636;7.692;2022-10-16T14:21:12;98234.81;;;37.65;26.63
9474;BME280;8865;47.636;7.692;2022-10-16T14:23:40;98237.66;;;36.04;28.93
9474;BME280;8865;47.636;7.692;2022-10-16T14:28:37;98242.63;;;33.51;32.94
9474;BME280;8865;47.636;7.692;2022-10-16T14:33:51;98249.19;;;31.63;38.54
9474;BME280;8865;47.636;7.692;2022-10-16T14:36:17;98253.63;;;31.01;40.45
9474;BME280;8865;47.636;7.692;2022-10-16T14:39:03;98254.16;;;30.39;41.95
9474;BME280;8865;47.636;7.692;2022-10-16T14:41:32;98243.50;;;29.85;42.95
9474;BME280;8865;47.636;7.692;2022-10-16T14:44:03;98251.78;;;29.46;48.16
9474;BME280;8865;47.636;7.692;2022-10-16T14:46:35;98254.09;;;29.10;46.60
9474;BME280;8865;47.636;7.692;2022-10-16T14:49:16;98253.53;;;28.85;49.09
9474;BME280;8865;47.636;7.692;2022-10-16T14:51:43;98246.34;;;28.69;50.26
9474;BME280;8865;47.636;7.692;2022-10-16T14:54:18;98252.31;;;28.54;59.90
9474;BME280;8865;47.636;7.692;2022-10-16T14:56:51;98254.72;;;28.33;66.58
9474;BME280;8865;47.636;7.692;2022-10-16T14:59:26;98262.53;;;28.13;57.66
9474;BME280;8865;47.636;7.692;2022-10-16T15:01:53;98263.69;;;28.00;59.91
9474;BME280;8865;47.636;7.692;2022-10-16T15:04:20;98266.66;;;27.87;62.49
9474;BME280;8865;47.636;7.692;2022-10-16T15:06:45;98270.16;;;27.70;61.09
9474;BME280;8865;47.636;7.692;2022-10-16T15:09:11;98272.28;;;27.51;59.28
9474;BME280;8865;47.636;7.692;2022-10-16T15:11:38;98268.94;;;27.32;65.27
9474;BME280;8865;47.636;7.692;2022-10-16T15:14:04;98277.41;;;27.12;70.29
9474;BME280;8865;47.636;7.692;2022-10-16T15:16:31;98273.88;;;26.95;66.29
9474;BME280;8865;47.636;7.692;2022-10-16T15:18:57;98275.06;;;26.75;70.44
9474;BME280;8865;47.636;7.692;2022-10-16T15:21:30;98270.41;;;26.59;70.31